TVF51SN LFPO-GCFV
Flight info
| Callsign | TVF51SN |
|---|---|
| Flight time | 3h 56m |
| Altitude | 33000 |
| Route | LGL UT176 TERPO UN872 ERIGA DCT FUJTI DCT PEPET DCT BAKUP DCT BATAX DCT SGR/N0461F350 DCT TAKAV DCT VEDOD UN857 TERTO |
| Aircraft | B738/M-SDFGHIJ1RWXY/LB1 |
Departure
| Time | 2026-05-05 04:18 |
|---|---|
| Airport | Paris-Orly Airport (LFPO) |
Arrival
| Time | 2026-05-05 08:14 |
|---|---|
| Airport | Fuerteventura Airport (GCFV) |
| Time | Latitude | Longitude | Altitude | Speed | Heading |
|---|---|---|---|---|---|
| 2026-05-05 03:40 | 48.72714 | 2.36746 | 282 ft | 0 kts | 22° |
| 2026-05-05 04:06 | 48.72712 | 2.36745 | 280 ft | 2 kts | 22° |
| 2026-05-05 04:06 | 48.72688 | 2.36730 | 282 ft | 4 kts | 22° |
| 2026-05-05 04:06 | 48.72667 | 2.36717 | 288 ft | 2 kts | 22° |
| 2026-05-05 04:07 | 48.72644 | 2.36708 | 288 ft | 4 kts | 353° |
| 2026-05-05 04:07 | 48.72619 | 2.36716 | 286 ft | 4 kts | 329° |
| 2026-05-05 04:07 | 48.72610 | 2.36727 | 286 ft | 4 kts | 269° |
| 2026-05-05 04:07 | 48.72619 | 2.36775 | 288 ft | 4 kts | 250° |
| 2026-05-05 04:08 | 48.72621 | 2.36782 | 288 ft | 1 kts | 250° |
| 2026-05-05 04:12 | 48.72620 | 2.36781 | 283 ft | 1 kts | 250° |
| 2026-05-05 04:12 | 48.72614 | 2.36753 | 285 ft | 5 kts | 250° |
| 2026-05-05 04:12 | 48.72595 | 2.36683 | 286 ft | 8 kts | 245° |
| 2026-05-05 04:12 | 48.72561 | 2.36621 | 287 ft | 8 kts | 200° |
| 2026-05-05 04:13 | 48.72508 | 2.36608 | 289 ft | 8 kts | 204° |
| 2026-05-05 04:13 | 48.72480 | 2.36543 | 285 ft | 7 kts | 250° |
| 2026-05-05 04:13 | 48.72466 | 2.36468 | 284 ft | 7 kts | 253° |
| 2026-05-05 04:13 | 48.72452 | 2.36395 | 285 ft | 7 kts | 254° |
| 2026-05-05 04:14 | 48.72436 | 2.36306 | 286 ft | 10 kts | 254° |
| 2026-05-05 04:14 | 48.72412 | 2.36181 | 287 ft | 14 kts | 254° |
| 2026-05-05 04:14 | 48.72382 | 2.36018 | 286 ft | 17 kts | 254° |
| 2026-05-05 04:14 | 48.72350 | 2.35842 | 285 ft | 17 kts | 255° |
| 2026-05-05 04:15 | 48.72319 | 2.35672 | 284 ft | 16 kts | 250° |
| 2026-05-05 04:15 | 48.72228 | 2.35602 | 284 ft | 16 kts | 174° |
| 2026-05-05 04:15 | 48.72125 | 2.35641 | 284 ft | 15 kts | 163° |
| 2026-05-05 04:15 | 48.72040 | 2.35731 | 286 ft | 15 kts | 127° |
| 2026-05-05 04:16 | 48.71992 | 2.35859 | 287 ft | 14 kts | 120° |
| 2026-05-05 04:16 | 48.71964 | 2.35973 | 285 ft | 6 kts | 71° |
| 2026-05-05 04:16 | 48.71967 | 2.35994 | 285 ft | 0 kts | 76° |
| 2026-05-05 04:17 | 48.71973 | 2.36032 | 290 ft | 22 kts | 75° |
| 2026-05-05 04:17 | 48.72082 | 2.36609 | 289 ft | 90 kts | 74° |
| 2026-05-05 04:17 | 48.72306 | 2.37821 | 290 ft | 147 kts | 75° |
| 2026-05-05 04:18 | 48.72645 | 2.39440 | 626 ft | 165 kts | 69° |
| 2026-05-05 04:18 | 48.73046 | 2.41149 | 1166 ft | 182 kts | 68° |
| 2026-05-05 04:18 | 48.73493 | 2.42964 | 1965 ft | 184 kts | 69° |
| 2026-05-05 04:18 | 48.73932 | 2.44905 | 2283 ft | 207 kts | 74° |
| 2026-05-05 04:19 | 48.74250 | 2.47151 | 2567 ft | 225 kts | 80° |
| 2026-05-05 04:19 | 48.74344 | 2.49588 | 2911 ft | 242 kts | 89° |
| 2026-05-05 04:19 | 48.74345 | 2.52214 | 3453 ft | 253 kts | 89° |
| 2026-05-05 04:19 | 48.74372 | 2.54899 | 4210 ft | 256 kts | 89° |
| 2026-05-05 04:20 | 48.74024 | 2.57546 | 4943 ft | 262 kts | 116° |
| 2026-05-05 04:20 | 48.72881 | 2.59712 | 5658 ft | 268 kts | 140° |
| 2026-05-05 04:20 | 48.71215 | 2.60990 | 6399 ft | 274 kts | 165° |
| 2026-05-05 04:20 | 48.69312 | 2.61036 | 7114 ft | 278 kts | 193° |
| 2026-05-05 04:21 | 48.67575 | 2.59735 | 7725 ft | 286 kts | 221° |
| 2026-05-05 04:21 | 48.66384 | 2.57329 | 8377 ft | 291 kts | 248° |
| 2026-05-05 04:21 | 48.65980 | 2.54349 | 9129 ft | 293 kts | 269° |
| 2026-05-05 04:21 | 48.66065 | 2.51246 | 9763 ft | 298 kts | 274° |
| 2026-05-05 04:22 | 48.66224 | 2.48111 | 10308 ft | 306 kts | 274° |
| 2026-05-05 04:22 | 48.66368 | 2.44782 | 10445 ft | 328 kts | 273° |
| 2026-05-05 04:22 | 48.66468 | 2.41235 | 10619 ft | 348 kts | 267° |
| 2026-05-05 04:22 | 48.65914 | 2.37628 | 10951 ft | 359 kts | 246° |
| 2026-05-05 04:23 | 48.64902 | 2.34168 | 11592 ft | 361 kts | 246° |
| 2026-05-05 04:23 | 48.63915 | 2.30657 | 12288 ft | 363 kts | 246° |
| 2026-05-05 04:23 | 48.63027 | 2.27070 | 12891 ft | 369 kts | 256° |
| 2026-05-05 04:23 | 48.62929 | 2.23211 | 13658 ft | 369 kts | 275° |
| 2026-05-05 04:24 | 48.63287 | 2.19353 | 14202 ft | 374 kts | 278° |
| 2026-05-05 04:24 | 48.63716 | 2.15431 | 14656 ft | 381 kts | 279° |
| 2026-05-05 04:24 | 48.64155 | 2.11467 | 15203 ft | 384 kts | 278° |
| 2026-05-05 04:25 | 48.65002 | 2.03448 | 16355 ft | 389 kts | 278° |
| 2026-05-05 04:25 | 48.65414 | 1.99377 | 16883 ft | 393 kts | 277° |
| 2026-05-05 04:25 | 48.65818 | 1.95329 | 17420 ft | 396 kts | 277° |
| 2026-05-05 04:25 | 48.66233 | 1.91141 | 17972 ft | 399 kts | 277° |
| 2026-05-05 04:26 | 48.66743 | 1.87054 | 18435 ft | 403 kts | 283° |
| 2026-05-05 04:26 | 48.67546 | 1.82972 | 18906 ft | 406 kts | 287° |
| 2026-05-05 04:26 | 48.68462 | 1.78853 | 19390 ft | 409 kts | 288° |
| 2026-05-05 04:26 | 48.69380 | 1.74764 | 19848 ft | 411 kts | 287° |
| 2026-05-05 04:27 | 48.70270 | 1.70692 | 20266 ft | 415 kts | 287° |
| 2026-05-05 04:27 | 48.71156 | 1.66513 | 20687 ft | 418 kts | 286° |
| 2026-05-05 04:27 | 48.72028 | 1.62307 | 21143 ft | 420 kts | 286° |
| 2026-05-05 04:27 | 48.72900 | 1.58062 | 21599 ft | 423 kts | 285° |
| 2026-05-05 04:28 | 48.73774 | 1.53795 | 22022 ft | 425 kts | 285° |
| 2026-05-05 04:28 | 48.74648 | 1.49500 | 22441 ft | 428 kts | 284° |
| 2026-05-05 04:28 | 48.75212 | 1.45083 | 22829 ft | 428 kts | 274° |
| 2026-05-05 04:28 | 48.75438 | 1.40579 | 23270 ft | 430 kts | 271° |
| 2026-05-05 04:29 | 48.75593 | 1.36053 | 23642 ft | 432 kts | 271° |
| 2026-05-05 04:29 | 48.75742 | 1.31485 | 23986 ft | 434 kts | 271° |
| 2026-05-05 04:29 | 48.75907 | 1.26912 | 24315 ft | 437 kts | 271° |
| 2026-05-05 04:29 | 48.76092 | 1.22297 | 24618 ft | 440 kts | 271° |
| 2026-05-05 04:30 | 48.76296 | 1.17603 | 24988 ft | 441 kts | 271° |
| 2026-05-05 04:30 | 48.76505 | 1.12975 | 25338 ft | 442 kts | 271° |
| 2026-05-05 04:30 | 48.76715 | 1.08381 | 25667 ft | 444 kts | 271° |
| 2026-05-05 04:30 | 48.76931 | 1.03641 | 25997 ft | 445 kts | 271° |
| 2026-05-05 04:31 | 48.77140 | 0.99015 | 26308 ft | 447 kts | 271° |
| 2026-05-05 04:31 | 48.77353 | 0.94245 | 26632 ft | 448 kts | 271° |
| 2026-05-05 04:31 | 48.77558 | 0.89589 | 26932 ft | 450 kts | 270° |
| 2026-05-05 04:31 | 48.77767 | 0.84792 | 27239 ft | 451 kts | 270° |
| 2026-05-05 04:32 | 48.77972 | 0.80023 | 27491 ft | 454 kts | 270° |
| 2026-05-05 04:32 | 48.78173 | 0.75310 | 27770 ft | 455 kts | 270° |
| 2026-05-05 04:32 | 48.78376 | 0.70510 | 28063 ft | 457 kts | 269° |
| 2026-05-05 04:32 | 48.78579 | 0.65699 | 28359 ft | 458 kts | 269° |
| 2026-05-05 04:33 | 48.78781 | 0.60817 | 28708 ft | 457 kts | 269° |
| 2026-05-05 04:33 | 48.78791 | 0.56103 | 29104 ft | 448 kts | 256° |
| 2026-05-05 04:33 | 48.77900 | 0.51612 | 29541 ft | 435 kts | 240° |
| 2026-05-05 04:33 | 48.76323 | 0.47786 | 29972 ft | 424 kts | 226° |
| 2026-05-05 04:34 | 48.74417 | 0.44407 | 30327 ft | 420 kts | 225° |
| 2026-05-05 04:34 | 48.72489 | 0.41089 | 30624 ft | 420 kts | 224° |
| 2026-05-05 04:34 | 48.70558 | 0.37765 | 30900 ft | 420 kts | 224° |
| 2026-05-05 04:34 | 48.68641 | 0.34436 | 31193 ft | 419 kts | 225° |
| 2026-05-05 04:35 | 48.66739 | 0.31100 | 31499 ft | 418 kts | 225° |
| 2026-05-05 04:35 | 48.64846 | 0.27763 | 31774 ft | 418 kts | 225° |
| 2026-05-05 04:35 | 48.62954 | 0.24425 | 31956 ft | 419 kts | 225° |
| 2026-05-05 04:35 | 48.61053 | 0.21073 | 32166 ft | 420 kts | 225° |
| 2026-05-05 04:36 | 48.59153 | 0.17730 | 32452 ft | 419 kts | 225° |
| 2026-05-05 04:36 | 48.57259 | 0.14395 | 32765 ft | 417 kts | 225° |
| 2026-05-05 04:36 | 48.55379 | 0.11062 | 32885 ft | 419 kts | 225° |
| 2026-05-05 04:37 | 48.51597 | 0.04332 | 32883 ft | 419 kts | 225° |
| 2026-05-05 04:37 | 48.47841 | -0.02343 | 32900 ft | 417 kts | 225° |
| 2026-05-05 04:38 | 48.44086 | -0.08987 | 32899 ft | 417 kts | 225° |
| 2026-05-05 04:38 | 48.40314 | -0.15643 | 32889 ft | 419 kts | 225° |
| 2026-05-05 04:39 | 48.36524 | -0.22319 | 32888 ft | 420 kts | 225° |
| 2026-05-05 04:39 | 48.32703 | -0.28995 | 32889 ft | 422 kts | 224° |
| 2026-05-05 04:40 | 48.28831 | -0.35666 | 32885 ft | 424 kts | 224° |
| 2026-05-05 04:40 | 48.24942 | -0.42349 | 32888 ft | 426 kts | 224° |
| 2026-05-05 04:41 | 48.21042 | -0.49044 | 32884 ft | 427 kts | 224° |
| 2026-05-05 04:41 | 48.17132 | -0.55746 | 32895 ft | 427 kts | 224° |
| 2026-05-05 04:42 | 48.13200 | -0.62466 | 32956 ft | 431 kts | 224° |
| 2026-05-05 04:42 | 48.11221 | -0.65842 | 33198 ft | 431 kts | 224° |
| 2026-05-05 04:42 | 48.09253 | -0.69198 | 33513 ft | 428 kts | 224° |
| 2026-05-05 04:42 | 48.07289 | -0.72542 | 33778 ft | 427 kts | 224° |
| 2026-05-05 04:43 | 48.05327 | -0.75879 | 33962 ft | 428 kts | 225° |
| 2026-05-05 04:43 | 48.03359 | -0.79220 | 34111 ft | 428 kts | 225° |
| 2026-05-05 04:43 | 48.01390 | -0.82557 | 34245 ft | 429 kts | 225° |
| 2026-05-05 04:43 | 47.99439 | -0.85860 | 34400 ft | 430 kts | 225° |
| 2026-05-05 04:44 | 47.97449 | -0.89225 | 34416 ft | 434 kts | 225° |
| 2026-05-05 04:44 | 47.95448 | -0.92605 | 34534 ft | 435 kts | 225° |
| 2026-05-05 04:44 | 47.93442 | -0.95990 | 34754 ft | 434 kts | 225° |
| 2026-05-05 04:44 | 47.91448 | -0.99351 | 34885 ft | 434 kts | 225° |
| 2026-05-05 04:45 | 47.89442 | -1.02728 | 34891 ft | 436 kts | 225° |
| 2026-05-05 04:45 | 47.85414 | -1.09493 | 34893 ft | 436 kts | 225° |
| 2026-05-05 04:46 | 47.81401 | -1.16218 | 34899 ft | 433 kts | 225° |
| 2026-05-05 04:46 | 47.77400 | -1.22905 | 34901 ft | 432 kts | 225° |
| 2026-05-05 04:47 | 47.73401 | -1.29571 | 34908 ft | 432 kts | 225° |
| 2026-05-05 04:47 | 47.69395 | -1.36234 | 34913 ft | 433 kts | 225° |
| 2026-05-05 04:48 | 47.65376 | -1.42901 | 34911 ft | 435 kts | 225° |
| 2026-05-05 04:48 | 47.61330 | -1.49600 | 34907 ft | 437 kts | 225° |
| 2026-05-05 04:49 | 47.57256 | -1.56318 | 34917 ft | 439 kts | 225° |
| 2026-05-05 04:49 | 47.53159 | -1.63053 | 34914 ft | 441 kts | 225° |
| 2026-05-05 04:50 | 47.49040 | -1.69813 | 34925 ft | 443 kts | 225° |
| 2026-05-05 04:50 | 47.44901 | -1.76589 | 34918 ft | 445 kts | 225° |
| 2026-05-05 04:51 | 47.40750 | -1.83373 | 34919 ft | 446 kts | 225° |
| 2026-05-05 04:51 | 47.36582 | -1.90160 | 34920 ft | 446 kts | 225° |
| 2026-05-05 04:52 | 47.31813 | -1.95865 | 34918 ft | 441 kts | 209° |
| 2026-05-05 04:52 | 47.27396 | -1.99733 | 34911 ft | 441 kts | 208° |
| 2026-05-05 04:53 | 47.22164 | -2.04311 | 34915 ft | 440 kts | 209° |
| 2026-05-05 04:53 | 47.16917 | -2.08956 | 34916 ft | 440 kts | 209° |
| 2026-05-05 04:54 | 47.11639 | -2.13649 | 34923 ft | 440 kts | 210° |
| 2026-05-05 04:54 | 47.06396 | -2.18303 | 34934 ft | 440 kts | 210° |
| 2026-05-05 04:55 | 47.01185 | -2.22916 | 34931 ft | 441 kts | 210° |
| 2026-05-05 04:55 | 46.95936 | -2.27552 | 34934 ft | 441 kts | 210° |
| 2026-05-05 04:56 | 46.90683 | -2.32181 | 34937 ft | 441 kts | 210° |
| 2026-05-05 04:56 | 46.85424 | -2.36804 | 34934 ft | 441 kts | 210° |
| 2026-05-05 04:57 | 46.80165 | -2.41419 | 34935 ft | 441 kts | 210° |
| 2026-05-05 04:57 | 46.74905 | -2.46030 | 34942 ft | 441 kts | 210° |
| 2026-05-05 04:58 | 46.69639 | -2.50637 | 34941 ft | 442 kts | 210° |
| 2026-05-05 04:58 | 46.64369 | -2.55236 | 34940 ft | 442 kts | 210° |
| 2026-05-05 04:59 | 46.59092 | -2.59831 | 34943 ft | 442 kts | 210° |
| 2026-05-05 04:59 | 46.53806 | -2.64424 | 34943 ft | 442 kts | 210° |
| 2026-05-05 05:00 | 46.48521 | -2.69005 | 34941 ft | 443 kts | 210° |
| 2026-05-05 05:00 | 46.43232 | -2.73579 | 34953 ft | 442 kts | 210° |
| 2026-05-05 05:01 | 46.37943 | -2.78143 | 34948 ft | 442 kts | 210° |
| 2026-05-05 05:01 | 46.32687 | -2.82669 | 34952 ft | 443 kts | 210° |
| 2026-05-05 05:02 | 46.27399 | -2.87213 | 34951 ft | 443 kts | 210° |
| 2026-05-05 05:02 | 46.22096 | -2.91752 | 34951 ft | 443 kts | 210° |
| 2026-05-05 05:03 | 46.16793 | -2.96278 | 34950 ft | 443 kts | 210° |
| 2026-05-05 05:03 | 46.11489 | -3.00797 | 34957 ft | 443 kts | 210° |
| 2026-05-05 05:04 | 46.06179 | -3.05312 | 34953 ft | 443 kts | 210° |
| 2026-05-05 05:04 | 46.00866 | -3.09820 | 34955 ft | 443 kts | 210° |
| 2026-05-05 05:05 | 45.95553 | -3.14318 | 34957 ft | 443 kts | 210° |
| 2026-05-05 05:05 | 45.90233 | -3.18812 | 34965 ft | 444 kts | 210° |
| 2026-05-05 05:06 | 45.84905 | -3.23302 | 34962 ft | 444 kts | 210° |
| 2026-05-05 05:06 | 45.79573 | -3.27787 | 34964 ft | 445 kts | 210° |
| 2026-05-05 05:07 | 45.74238 | -3.32263 | 34964 ft | 445 kts | 210° |
| 2026-05-05 05:07 | 45.68892 | -3.36738 | 34963 ft | 445 kts | 210° |
| 2026-05-05 05:08 | 45.63546 | -3.41203 | 34963 ft | 445 kts | 210° |
| 2026-05-05 05:08 | 45.58194 | -3.45664 | 34969 ft | 445 kts | 210° |
| 2026-05-05 05:09 | 45.52842 | -3.50115 | 34965 ft | 445 kts | 210° |
| 2026-05-05 05:09 | 45.47478 | -3.54565 | 34968 ft | 446 kts | 210° |
| 2026-05-05 05:10 | 45.42116 | -3.59004 | 34968 ft | 446 kts | 210° |
| 2026-05-05 05:10 | 45.36742 | -3.63444 | 34967 ft | 447 kts | 210° |
| 2026-05-05 05:11 | 45.31367 | -3.67874 | 34972 ft | 447 kts | 210° |
| 2026-05-05 05:11 | 45.25989 | -3.72297 | 34971 ft | 447 kts | 210° |
| 2026-05-05 05:12 | 45.20645 | -3.76683 | 34969 ft | 446 kts | 210° |
| 2026-05-05 05:12 | 45.15269 | -3.81086 | 34974 ft | 446 kts | 210° |
| 2026-05-05 05:13 | 45.09900 | -3.85474 | 34986 ft | 445 kts | 210° |
| 2026-05-05 05:13 | 45.04563 | -3.89920 | 34970 ft | 445 kts | 211° |
| 2026-05-05 05:14 | 44.99283 | -3.94473 | 34973 ft | 444 kts | 211° |
| 2026-05-05 05:14 | 44.94010 | -3.99016 | 34969 ft | 444 kts | 211° |
| 2026-05-05 05:15 | 44.88735 | -4.03530 | 34976 ft | 443 kts | 211° |
| 2026-05-05 05:15 | 44.83458 | -4.08026 | 34976 ft | 443 kts | 211° |
| 2026-05-05 05:16 | 44.78186 | -4.12507 | 34971 ft | 443 kts | 211° |
| 2026-05-05 05:16 | 44.72911 | -4.16981 | 34974 ft | 443 kts | 211° |
| 2026-05-05 05:17 | 44.67633 | -4.21448 | 34977 ft | 443 kts | 211° |
| 2026-05-05 05:17 | 44.62356 | -4.25905 | 34978 ft | 443 kts | 211° |
| 2026-05-05 05:18 | 44.57103 | -4.30333 | 34978 ft | 443 kts | 211° |
| 2026-05-05 05:18 | 44.51816 | -4.34780 | 34975 ft | 443 kts | 211° |
| 2026-05-05 05:19 | 44.46523 | -4.39224 | 34978 ft | 443 kts | 211° |
| 2026-05-05 05:19 | 44.41230 | -4.43656 | 34980 ft | 443 kts | 211° |
| 2026-05-05 05:20 | 44.35954 | -4.48109 | 34977 ft | 443 kts | 212° |
| 2026-05-05 05:20 | 44.30690 | -4.52574 | 34974 ft | 442 kts | 212° |
| 2026-05-05 05:21 | 44.25431 | -4.57024 | 34981 ft | 442 kts | 212° |
| 2026-05-05 05:21 | 44.20176 | -4.61456 | 34992 ft | 441 kts | 212° |
| 2026-05-05 05:22 | 44.14926 | -4.65874 | 34979 ft | 441 kts | 212° |
| 2026-05-05 05:22 | 44.09678 | -4.70282 | 34992 ft | 440 kts | 212° |
| 2026-05-05 05:23 | 44.04434 | -4.74673 | 34996 ft | 440 kts | 212° |
| 2026-05-05 05:23 | 43.99185 | -4.79062 | 34991 ft | 440 kts | 213° |
| 2026-05-05 05:24 | 43.93938 | -4.83439 | 34988 ft | 440 kts | 212° |
| 2026-05-05 05:24 | 43.88685 | -4.87814 | 34996 ft | 440 kts | 212° |
| 2026-05-05 05:25 | 43.83428 | -4.92182 | 35004 ft | 441 kts | 212° |
| 2026-05-05 05:25 | 43.78168 | -4.96543 | 34997 ft | 441 kts | 213° |
| 2026-05-05 05:26 | 43.72892 | -5.00908 | 35005 ft | 442 kts | 213° |
| 2026-05-05 05:26 | 43.67613 | -5.05268 | 35006 ft | 443 kts | 212° |
| 2026-05-05 05:27 | 43.62320 | -5.09630 | 35009 ft | 443 kts | 212° |
| 2026-05-05 05:27 | 43.54361 | -5.16171 | 35011 ft | 444 kts | 212° |
| 2026-05-05 05:28 | 43.49044 | -5.20529 | 35015 ft | 444 kts | 213° |
| 2026-05-05 05:28 | 43.43738 | -5.24869 | 35016 ft | 444 kts | 212° |
| 2026-05-05 05:29 | 43.38428 | -5.29205 | 35030 ft | 443 kts | 212° |
| 2026-05-05 05:29 | 43.33123 | -5.33526 | 35030 ft | 443 kts | 213° |
| 2026-05-05 05:30 | 43.27824 | -5.37834 | 35029 ft | 442 kts | 213° |
| 2026-05-05 05:30 | 43.22534 | -5.42127 | 35034 ft | 442 kts | 213° |
| 2026-05-05 05:31 | 43.17244 | -5.46409 | 35041 ft | 441 kts | 213° |
| 2026-05-05 05:31 | 43.11953 | -5.50685 | 35049 ft | 441 kts | 213° |
| 2026-05-05 05:32 | 43.06669 | -5.54946 | 35048 ft | 441 kts | 213° |
| 2026-05-05 05:32 | 43.01389 | -5.59195 | 35055 ft | 440 kts | 213° |
| 2026-05-05 05:33 | 42.96111 | -5.63435 | 35055 ft | 440 kts | 213° |
| 2026-05-05 05:33 | 42.90838 | -5.67661 | 35045 ft | 439 kts | 213° |
| 2026-05-05 05:34 | 42.85572 | -5.71873 | 35019 ft | 438 kts | 214° |
| 2026-05-05 05:34 | 42.80311 | -5.76074 | 35033 ft | 438 kts | 214° |
| 2026-05-05 05:35 | 42.75054 | -5.80262 | 35008 ft | 438 kts | 214° |
| 2026-05-05 05:35 | 42.69803 | -5.84438 | 35021 ft | 437 kts | 213° |
| 2026-05-05 05:36 | 42.64546 | -5.88610 | 35016 ft | 438 kts | 213° |
| 2026-05-05 05:36 | 42.59288 | -5.92775 | 35028 ft | 438 kts | 213° |
| 2026-05-05 05:37 | 42.54059 | -5.96908 | 35025 ft | 438 kts | 213° |
| 2026-05-05 05:37 | 42.48793 | -6.01063 | 35042 ft | 438 kts | 213° |
| 2026-05-05 05:38 | 42.43525 | -6.05211 | 35048 ft | 439 kts | 214° |
| 2026-05-05 05:38 | 42.38237 | -6.09367 | 35056 ft | 439 kts | 213° |
| 2026-05-05 05:39 | 42.32957 | -6.13508 | 35062 ft | 439 kts | 213° |
| 2026-05-05 05:39 | 42.27669 | -6.17647 | 35067 ft | 439 kts | 213° |
| 2026-05-05 05:40 | 42.22373 | -6.21785 | 35047 ft | 440 kts | 213° |
| 2026-05-05 05:40 | 42.17939 | -6.25242 | 35057 ft | 440 kts | 213° |
| 2026-05-05 05:41 | 42.12646 | -6.29363 | 35066 ft | 440 kts | 213° |
| 2026-05-05 05:41 | 42.07347 | -6.33480 | 35071 ft | 440 kts | 213° |
| 2026-05-05 05:42 | 42.02051 | -6.37587 | 35057 ft | 439 kts | 213° |
| 2026-05-05 05:42 | 41.96752 | -6.41687 | 35067 ft | 439 kts | 213° |
| 2026-05-05 05:43 | 41.91466 | -6.45771 | 35070 ft | 438 kts | 213° |
| 2026-05-05 05:43 | 41.86172 | -6.49852 | 35064 ft | 438 kts | 213° |
| 2026-05-05 05:44 | 41.80888 | -6.53919 | 35072 ft | 438 kts | 213° |
| 2026-05-05 05:44 | 41.75611 | -6.57973 | 35064 ft | 437 kts | 214° |
| 2026-05-05 05:45 | 41.70330 | -6.62007 | 35064 ft | 437 kts | 212° |
| 2026-05-05 05:45 | 41.64743 | -6.65300 | 35065 ft | 440 kts | 206° |
| 2026-05-05 05:46 | 41.59043 | -6.68274 | 35070 ft | 440 kts | 205° |
| 2026-05-05 05:46 | 41.53395 | -6.71236 | 35070 ft | 438 kts | 206° |
| 2026-05-05 05:47 | 41.47734 | -6.74251 | 35078 ft | 438 kts | 206° |
| 2026-05-05 05:47 | 41.42086 | -6.77278 | 35075 ft | 437 kts | 206° |
| 2026-05-05 05:48 | 41.36440 | -6.80304 | 35084 ft | 437 kts | 206° |
| 2026-05-05 05:48 | 41.30793 | -6.83325 | 35074 ft | 437 kts | 207° |
| 2026-05-05 05:49 | 41.25150 | -6.86337 | 35078 ft | 437 kts | 207° |
| 2026-05-05 05:49 | 41.19511 | -6.89341 | 35078 ft | 436 kts | 207° |
| 2026-05-05 05:50 | 41.13881 | -6.92333 | 35063 ft | 436 kts | 207° |
| 2026-05-05 05:50 | 41.08258 | -6.95317 | 35081 ft | 435 kts | 207° |
| 2026-05-05 05:51 | 41.02641 | -6.98292 | 35084 ft | 434 kts | 207° |
| 2026-05-05 05:51 | 40.97067 | -7.01240 | 35090 ft | 434 kts | 207° |
| 2026-05-05 05:52 | 40.91456 | -7.04201 | 35067 ft | 434 kts | 208° |
| 2026-05-05 05:52 | 40.85853 | -7.07153 | 35076 ft | 434 kts | 208° |
| 2026-05-05 05:53 | 40.80245 | -7.10102 | 35086 ft | 434 kts | 208° |
| 2026-05-05 05:53 | 40.74643 | -7.13042 | 35090 ft | 433 kts | 208° |
| 2026-05-05 05:54 | 40.69043 | -7.15976 | 35096 ft | 433 kts | 208° |
| 2026-05-05 05:54 | 40.63448 | -7.18902 | 35085 ft | 433 kts | 208° |
| 2026-05-05 05:55 | 40.57855 | -7.21822 | 35091 ft | 432 kts | 208° |
| 2026-05-05 05:55 | 40.52268 | -7.24734 | 35088 ft | 432 kts | 208° |
| 2026-05-05 05:56 | 40.46678 | -7.27641 | 35105 ft | 432 kts | 208° |
| 2026-05-05 05:56 | 40.41073 | -7.30552 | 35099 ft | 434 kts | 208° |
| 2026-05-05 05:57 | 40.35460 | -7.33461 | 35093 ft | 434 kts | 208° |
| 2026-05-05 05:57 | 40.29835 | -7.36371 | 35093 ft | 434 kts | 208° |
| 2026-05-05 05:58 | 40.24216 | -7.39272 | 35097 ft | 435 kts | 208° |
| 2026-05-05 05:58 | 40.18599 | -7.42166 | 35089 ft | 433 kts | 209° |
| 2026-05-05 05:59 | 40.12998 | -7.45048 | 35092 ft | 432 kts | 209° |
| 2026-05-05 05:59 | 40.07407 | -7.47920 | 35082 ft | 431 kts | 209° |
| 2026-05-05 06:00 | 40.01837 | -7.50775 | 35093 ft | 429 kts | 209° |
| 2026-05-05 06:00 | 39.96296 | -7.53610 | 35089 ft | 426 kts | 210° |
| 2026-05-05 06:01 | 39.90781 | -7.56428 | 35094 ft | 425 kts | 210° |
| 2026-05-05 06:01 | 39.85286 | -7.59232 | 35094 ft | 424 kts | 210° |
| 2026-05-05 06:02 | 39.79803 | -7.62024 | 35091 ft | 422 kts | 210° |
| 2026-05-05 06:02 | 39.74382 | -7.64779 | 35094 ft | 420 kts | 210° |
| 2026-05-05 06:03 | 39.68941 | -7.67541 | 35091 ft | 419 kts | 210° |
| 2026-05-05 06:03 | 39.63516 | -7.70289 | 35093 ft | 418 kts | 210° |
| 2026-05-05 06:04 | 39.58105 | -7.73026 | 35092 ft | 417 kts | 210° |
| 2026-05-05 06:04 | 39.52702 | -7.75756 | 35068 ft | 417 kts | 210° |
| 2026-05-05 06:05 | 39.47302 | -7.78478 | 35089 ft | 416 kts | 210° |
| 2026-05-05 06:05 | 39.41907 | -7.81194 | 35088 ft | 416 kts | 210° |
| 2026-05-05 06:06 | 39.36506 | -7.83908 | 35108 ft | 417 kts | 210° |
| 2026-05-05 06:06 | 39.31095 | -7.86623 | 35069 ft | 417 kts | 209° |
| 2026-05-05 06:07 | 39.25681 | -7.89333 | 35087 ft | 417 kts | 210° |
| 2026-05-05 06:07 | 39.20263 | -7.92042 | 35100 ft | 418 kts | 210° |
| 2026-05-05 06:08 | 39.14840 | -7.94749 | 35100 ft | 418 kts | 209° |
| 2026-05-05 06:08 | 39.09408 | -7.97456 | 35105 ft | 419 kts | 209° |
| 2026-05-05 06:09 | 39.03982 | -8.00153 | 35096 ft | 418 kts | 210° |
| 2026-05-05 06:09 | 38.98560 | -8.02845 | 35094 ft | 417 kts | 210° |
| 2026-05-05 06:10 | 38.93161 | -8.05520 | 35099 ft | 415 kts | 210° |
| 2026-05-05 06:10 | 38.87775 | -8.08186 | 35102 ft | 414 kts | 210° |
| 2026-05-05 06:11 | 38.82442 | -8.10822 | 35087 ft | 413 kts | 210° |
| 2026-05-05 06:11 | 38.77093 | -8.13460 | 35098 ft | 411 kts | 210° |
| 2026-05-05 06:12 | 38.71756 | -8.16090 | 35117 ft | 410 kts | 210° |
| 2026-05-05 06:12 | 38.66429 | -8.18711 | 35098 ft | 410 kts | 210° |
| 2026-05-05 06:13 | 38.61108 | -8.21324 | 35118 ft | 409 kts | 210° |
| 2026-05-05 06:13 | 38.55801 | -8.23925 | 35106 ft | 408 kts | 210° |
| 2026-05-05 06:14 | 38.50500 | -8.26520 | 35112 ft | 408 kts | 210° |
| 2026-05-05 06:14 | 38.45197 | -8.29113 | 35114 ft | 408 kts | 210° |
| 2026-05-05 06:15 | 38.39888 | -8.31703 | 35116 ft | 409 kts | 210° |
| 2026-05-05 06:15 | 38.34577 | -8.34291 | 35091 ft | 409 kts | 210° |
| 2026-05-05 06:16 | 38.29266 | -8.36874 | 35106 ft | 409 kts | 210° |
| 2026-05-05 06:16 | 38.23950 | -8.39456 | 35111 ft | 409 kts | 210° |
| 2026-05-05 06:17 | 38.18628 | -8.42037 | 35120 ft | 410 kts | 210° |
| 2026-05-05 06:17 | 38.13297 | -8.44618 | 35116 ft | 410 kts | 210° |
| 2026-05-05 06:18 | 38.07956 | -8.47199 | 35114 ft | 411 kts | 210° |
| 2026-05-05 06:18 | 38.02610 | -8.49780 | 35114 ft | 411 kts | 210° |
| 2026-05-05 06:19 | 37.97265 | -8.52355 | 35118 ft | 411 kts | 210° |
| 2026-05-05 06:19 | 37.91913 | -8.54929 | 35118 ft | 412 kts | 210° |
| 2026-05-05 06:20 | 37.86590 | -8.57486 | 35079 ft | 411 kts | 209° |
| 2026-05-05 06:20 | 37.81246 | -8.60049 | 35104 ft | 411 kts | 209° |
| 2026-05-05 06:21 | 37.75904 | -8.62606 | 35119 ft | 411 kts | 209° |
| 2026-05-05 06:21 | 37.70556 | -8.65163 | 35114 ft | 411 kts | 209° |
| 2026-05-05 06:22 | 37.65210 | -8.67715 | 35123 ft | 411 kts | 209° |
| 2026-05-05 06:22 | 37.59859 | -8.70266 | 35122 ft | 411 kts | 208° |
| 2026-05-05 06:23 | 37.54507 | -8.72814 | 35114 ft | 411 kts | 208° |
| 2026-05-05 06:23 | 37.49149 | -8.75360 | 35124 ft | 412 kts | 208° |
| 2026-05-05 06:24 | 37.43778 | -8.77909 | 35122 ft | 413 kts | 208° |
| 2026-05-05 06:24 | 37.38389 | -8.80462 | 35083 ft | 414 kts | 208° |
| 2026-05-05 06:25 | 37.32992 | -8.83014 | 35108 ft | 415 kts | 208° |
| 2026-05-05 06:25 | 37.27594 | -8.85564 | 35119 ft | 415 kts | 208° |
| 2026-05-05 06:26 | 37.22182 | -8.88116 | 35111 ft | 416 kts | 208° |
| 2026-05-05 06:26 | 37.16764 | -8.90668 | 35114 ft | 416 kts | 208° |
| 2026-05-05 06:27 | 37.08637 | -8.94485 | 35106 ft | 416 kts | 207° |
| 2026-05-05 06:28 | 37.03161 | -8.96732 | 35109 ft | 418 kts | 204° |
| 2026-05-05 06:28 | 36.97595 | -8.98829 | 35110 ft | 418 kts | 204° |
| 2026-05-05 06:29 | 36.92938 | -9.00588 | 35107 ft | 417 kts | 204° |
| 2026-05-05 06:29 | 36.86495 | -9.03051 | 35109 ft | 416 kts | 204° |
| 2026-05-05 06:30 | 36.81862 | -9.04831 | 35106 ft | 416 kts | 204° |
| 2026-05-05 06:30 | 36.76331 | -9.06957 | 35113 ft | 416 kts | 204° |
| 2026-05-05 06:31 | 36.70832 | -9.09067 | 35113 ft | 416 kts | 204° |
| 2026-05-05 06:31 | 36.65256 | -9.11203 | 35113 ft | 417 kts | 204° |
| 2026-05-05 06:32 | 36.59714 | -9.13322 | 35108 ft | 417 kts | 203° |
| 2026-05-05 06:32 | 36.54170 | -9.15439 | 35113 ft | 417 kts | 203° |
| 2026-05-05 06:33 | 36.48658 | -9.17540 | 35110 ft | 417 kts | 203° |
| 2026-05-05 06:33 | 36.43068 | -9.19668 | 35111 ft | 417 kts | 203° |
| 2026-05-05 06:34 | 36.37551 | -9.21766 | 35092 ft | 418 kts | 202° |
| 2026-05-05 06:34 | 36.31996 | -9.23874 | 35106 ft | 417 kts | 202° |
| 2026-05-05 06:35 | 36.26443 | -9.25978 | 35116 ft | 417 kts | 202° |
| 2026-05-05 06:35 | 36.20882 | -9.28083 | 35114 ft | 418 kts | 202° |
| 2026-05-05 06:36 | 36.15326 | -9.30182 | 35115 ft | 418 kts | 202° |
| 2026-05-05 06:36 | 36.09769 | -9.32279 | 35110 ft | 417 kts | 202° |
| 2026-05-05 06:37 | 36.04217 | -9.34371 | 35111 ft | 417 kts | 202° |
| 2026-05-05 06:37 | 35.98659 | -9.36462 | 35111 ft | 418 kts | 202° |
| 2026-05-05 06:38 | 35.93291 | -9.39047 | 35121 ft | 412 kts | 210° |
| 2026-05-05 06:38 | 35.88132 | -9.42138 | 35112 ft | 412 kts | 211° |
| 2026-05-05 06:39 | 35.82974 | -9.45238 | 35114 ft | 413 kts | 210° |
| 2026-05-05 06:39 | 35.77796 | -9.48308 | 35113 ft | 414 kts | 210° |
| 2026-05-05 06:40 | 35.72598 | -9.51364 | 35114 ft | 415 kts | 210° |
| 2026-05-05 06:40 | 35.67379 | -9.54420 | 35113 ft | 416 kts | 210° |
| 2026-05-05 06:41 | 35.62150 | -9.57476 | 35114 ft | 417 kts | 210° |
| 2026-05-05 06:41 | 35.56915 | -9.60532 | 35115 ft | 417 kts | 210° |
| 2026-05-05 06:42 | 35.51664 | -9.63593 | 35112 ft | 418 kts | 210° |
| 2026-05-05 06:42 | 35.46415 | -9.66648 | 35113 ft | 418 kts | 210° |
| 2026-05-05 06:43 | 35.41165 | -9.69699 | 35120 ft | 417 kts | 210° |
| 2026-05-05 06:43 | 35.35918 | -9.72745 | 35098 ft | 417 kts | 210° |
| 2026-05-05 06:44 | 35.30677 | -9.75782 | 35108 ft | 417 kts | 210° |
| 2026-05-05 06:44 | 35.25478 | -9.78791 | 35111 ft | 416 kts | 210° |
| 2026-05-05 06:45 | 35.20240 | -9.81818 | 35110 ft | 416 kts | 210° |
| 2026-05-05 06:45 | 35.15009 | -9.84837 | 35110 ft | 416 kts | 210° |
| 2026-05-05 06:46 | 35.09773 | -9.87855 | 35099 ft | 416 kts | 209° |
| 2026-05-05 06:46 | 35.04537 | -9.90868 | 35110 ft | 416 kts | 209° |
| 2026-05-05 06:47 | 34.99299 | -9.93878 | 35114 ft | 416 kts | 209° |
| 2026-05-05 06:47 | 34.94054 | -9.96888 | 35112 ft | 417 kts | 209° |
| 2026-05-05 06:48 | 34.88801 | -9.99898 | 35110 ft | 417 kts | 209° |
| 2026-05-05 06:48 | 34.83541 | -10.02907 | 35113 ft | 418 kts | 209° |
| 2026-05-05 06:49 | 34.78278 | -10.05915 | 35110 ft | 418 kts | 209° |
| 2026-05-05 06:49 | 34.73003 | -10.08925 | 35109 ft | 419 kts | 209° |
| 2026-05-05 06:50 | 34.67722 | -10.11934 | 35112 ft | 420 kts | 209° |
| 2026-05-05 06:50 | 34.62433 | -10.14943 | 35109 ft | 420 kts | 209° |
| 2026-05-05 06:51 | 34.57134 | -10.17953 | 35114 ft | 420 kts | 208° |
| 2026-05-05 06:51 | 34.51836 | -10.20959 | 35103 ft | 420 kts | 208° |
| 2026-05-05 06:52 | 34.46570 | -10.23943 | 35103 ft | 421 kts | 208° |
| 2026-05-05 06:52 | 34.41265 | -10.26943 | 35101 ft | 421 kts | 208° |
| 2026-05-05 06:53 | 34.35961 | -10.29940 | 35106 ft | 421 kts | 208° |
| 2026-05-05 06:53 | 34.30652 | -10.32936 | 35108 ft | 421 kts | 208° |
| 2026-05-05 06:54 | 34.25347 | -10.35924 | 35094 ft | 421 kts | 208° |
| 2026-05-05 06:54 | 34.20043 | -10.38908 | 35101 ft | 420 kts | 208° |
| 2026-05-05 06:55 | 34.14742 | -10.41885 | 35100 ft | 420 kts | 208° |
| 2026-05-05 06:55 | 34.09443 | -10.44858 | 35101 ft | 420 kts | 208° |
| 2026-05-05 06:56 | 34.04145 | -10.47827 | 35101 ft | 420 kts | 208° |
| 2026-05-05 06:56 | 33.98849 | -10.50790 | 35095 ft | 419 kts | 208° |
| 2026-05-05 06:57 | 33.93566 | -10.53741 | 35096 ft | 418 kts | 208° |
| 2026-05-05 06:57 | 33.88291 | -10.56684 | 35101 ft | 418 kts | 208° |
| 2026-05-05 06:58 | 33.83023 | -10.59620 | 35099 ft | 417 kts | 208° |
| 2026-05-05 06:58 | 33.77792 | -10.62530 | 35102 ft | 417 kts | 208° |
| 2026-05-05 06:59 | 33.72532 | -10.65453 | 35091 ft | 416 kts | 209° |
| 2026-05-05 06:59 | 33.67285 | -10.68364 | 35096 ft | 415 kts | 209° |
| 2026-05-05 07:00 | 33.62042 | -10.71270 | 35093 ft | 415 kts | 209° |
| 2026-05-05 07:00 | 33.56806 | -10.74167 | 35098 ft | 414 kts | 209° |
| 2026-05-05 07:01 | 33.51574 | -10.77059 | 35094 ft | 414 kts | 209° |
| 2026-05-05 07:01 | 33.46344 | -10.79946 | 35083 ft | 414 kts | 209° |
| 2026-05-05 07:02 | 33.41120 | -10.82825 | 35092 ft | 413 kts | 209° |
| 2026-05-05 07:02 | 33.35899 | -10.85699 | 35093 ft | 413 kts | 209° |
| 2026-05-05 07:03 | 33.30679 | -10.88569 | 35093 ft | 413 kts | 209° |
| 2026-05-05 07:03 | 33.25463 | -10.91433 | 35089 ft | 413 kts | 209° |
| 2026-05-05 07:04 | 33.20243 | -10.94295 | 35087 ft | 413 kts | 209° |
| 2026-05-05 07:04 | 33.15027 | -10.97150 | 35087 ft | 412 kts | 210° |
| 2026-05-05 07:05 | 33.09822 | -10.99997 | 35089 ft | 411 kts | 210° |
| 2026-05-05 07:05 | 33.04622 | -11.02836 | 35088 ft | 411 kts | 210° |
| 2026-05-05 07:06 | 32.99430 | -11.05668 | 35090 ft | 410 kts | 210° |
| 2026-05-05 07:06 | 32.94241 | -11.08495 | 35087 ft | 410 kts | 210° |
| 2026-05-05 07:07 | 32.89063 | -11.11312 | 35089 ft | 409 kts | 210° |
| 2026-05-05 07:07 | 32.83883 | -11.14126 | 35089 ft | 409 kts | 210° |
| 2026-05-05 07:08 | 32.78708 | -11.16934 | 35088 ft | 409 kts | 210° |
| 2026-05-05 07:08 | 32.73533 | -11.19739 | 35084 ft | 409 kts | 210° |
| 2026-05-05 07:09 | 32.68359 | -11.22539 | 35084 ft | 409 kts | 210° |
| 2026-05-05 07:09 | 32.63215 | -11.25319 | 35072 ft | 409 kts | 210° |
| 2026-05-05 07:10 | 32.58044 | -11.28111 | 35078 ft | 408 kts | 210° |
| 2026-05-05 07:10 | 32.52874 | -11.30898 | 35078 ft | 408 kts | 210° |
| 2026-05-05 07:11 | 32.47712 | -11.33678 | 35081 ft | 408 kts | 210° |
| 2026-05-05 07:11 | 32.42549 | -11.36454 | 35078 ft | 407 kts | 210° |
| 2026-05-05 07:12 | 32.37392 | -11.39224 | 35079 ft | 407 kts | 210° |
| 2026-05-05 07:12 | 32.32247 | -11.41984 | 35071 ft | 406 kts | 210° |
| 2026-05-05 07:13 | 32.27110 | -11.44736 | 35075 ft | 405 kts | 210° |
| 2026-05-05 07:13 | 32.21985 | -11.47478 | 35079 ft | 404 kts | 210° |
| 2026-05-05 07:14 | 32.16864 | -11.50215 | 35079 ft | 404 kts | 210° |
| 2026-05-05 07:14 | 32.11746 | -11.52947 | 35075 ft | 403 kts | 210° |
| 2026-05-05 07:15 | 32.06639 | -11.55669 | 35076 ft | 402 kts | 211° |
| 2026-05-05 07:15 | 32.01547 | -11.58380 | 35071 ft | 401 kts | 211° |
| 2026-05-05 07:16 | 31.96469 | -11.61080 | 35071 ft | 400 kts | 211° |
| 2026-05-05 07:16 | 31.91406 | -11.63770 | 35072 ft | 399 kts | 211° |
| 2026-05-05 07:17 | 31.86354 | -11.66450 | 35076 ft | 398 kts | 211° |
| 2026-05-05 07:17 | 31.81312 | -11.69122 | 35070 ft | 397 kts | 211° |
| 2026-05-05 07:18 | 31.77130 | -11.71335 | 35066 ft | 396 kts | 212° |
| 2026-05-05 07:18 | 31.72111 | -11.73989 | 35066 ft | 395 kts | 212° |
| 2026-05-05 07:19 | 31.66291 | -11.77062 | 35073 ft | 394 kts | 212° |
| 2026-05-05 07:19 | 31.62104 | -11.79270 | 35067 ft | 394 kts | 212° |
| 2026-05-05 07:20 | 31.57111 | -11.81901 | 35071 ft | 393 kts | 212° |
| 2026-05-05 07:20 | 31.52118 | -11.84529 | 35040 ft | 393 kts | 212° |
| 2026-05-05 07:21 | 31.47132 | -11.87149 | 35058 ft | 393 kts | 212° |
| 2026-05-05 07:21 | 31.42147 | -11.89767 | 35071 ft | 392 kts | 212° |
| 2026-05-05 07:22 | 31.37162 | -11.92381 | 35067 ft | 393 kts | 212° |
| 2026-05-05 07:22 | 31.32177 | -11.94992 | 35069 ft | 393 kts | 212° |
| 2026-05-05 07:23 | 31.27221 | -11.97585 | 35066 ft | 393 kts | 212° |
| 2026-05-05 07:23 | 31.22228 | -12.00194 | 35042 ft | 393 kts | 213° |
| 2026-05-05 07:24 | 31.17245 | -12.02794 | 35052 ft | 392 kts | 213° |
| 2026-05-05 07:24 | 31.12262 | -12.05393 | 35072 ft | 392 kts | 213° |
| 2026-05-05 07:25 | 31.07279 | -12.07988 | 35057 ft | 392 kts | 213° |
| 2026-05-05 07:25 | 31.02302 | -12.10576 | 35060 ft | 391 kts | 213° |
| 2026-05-05 07:26 | 30.97333 | -12.13157 | 35056 ft | 391 kts | 213° |
| 2026-05-05 07:26 | 30.92372 | -12.15731 | 35058 ft | 389 kts | 213° |
| 2026-05-05 07:27 | 30.87429 | -12.18293 | 35064 ft | 388 kts | 213° |
| 2026-05-05 07:27 | 30.82498 | -12.20847 | 35055 ft | 387 kts | 213° |
| 2026-05-05 07:28 | 30.77580 | -12.23391 | 35045 ft | 387 kts | 213° |
| 2026-05-05 07:28 | 30.72667 | -12.25929 | 35059 ft | 386 kts | 213° |
| 2026-05-05 07:29 | 30.67763 | -12.28461 | 35052 ft | 385 kts | 213° |
| 2026-05-05 07:29 | 30.62870 | -12.30983 | 35048 ft | 384 kts | 213° |
| 2026-05-05 07:30 | 30.58014 | -12.33485 | 35050 ft | 384 kts | 213° |
| 2026-05-05 07:30 | 30.50747 | -12.37323 | 35053 ft | 378 kts | 218° |
| 2026-05-05 07:31 | 30.46512 | -12.40761 | 35067 ft | 370 kts | 224° |
| 2026-05-05 07:31 | 30.42384 | -12.44339 | 35058 ft | 371 kts | 224° |
| 2026-05-05 07:32 | 30.38240 | -12.47906 | 35053 ft | 371 kts | 224° |
| 2026-05-05 07:32 | 30.34085 | -12.51469 | 35032 ft | 372 kts | 224° |
| 2026-05-05 07:33 | 30.29929 | -12.55027 | 35051 ft | 372 kts | 224° |
| 2026-05-05 07:33 | 30.25770 | -12.58584 | 35057 ft | 372 kts | 224° |
| 2026-05-05 07:34 | 30.21602 | -12.62145 | 35057 ft | 373 kts | 224° |
| 2026-05-05 07:34 | 30.17430 | -12.65706 | 35057 ft | 373 kts | 224° |
| 2026-05-05 07:35 | 30.13255 | -12.69266 | 35058 ft | 373 kts | 224° |
| 2026-05-05 07:35 | 30.09042 | -12.72717 | 35052 ft | 377 kts | 219° |
| 2026-05-05 07:36 | 30.04431 | -12.75696 | 35056 ft | 381 kts | 217° |
| 2026-05-05 07:36 | 29.99767 | -12.78576 | 35062 ft | 380 kts | 217° |
| 2026-05-05 07:37 | 29.95130 | -12.81487 | 35051 ft | 379 kts | 217° |
| 2026-05-05 07:37 | 29.90525 | -12.84412 | 35053 ft | 377 kts | 217° |
| 2026-05-05 07:38 | 29.85948 | -12.87330 | 35053 ft | 375 kts | 217° |
| 2026-05-05 07:38 | 29.81385 | -12.90239 | 35053 ft | 374 kts | 217° |
| 2026-05-05 07:39 | 29.76869 | -12.93110 | 35039 ft | 362 kts | 218° |
| 2026-05-05 07:39 | 29.74679 | -12.94498 | 34769 ft | 357 kts | 218° |
| 2026-05-05 07:39 | 29.72539 | -12.95855 | 34534 ft | 348 kts | 218° |
| 2026-05-05 07:40 | 29.70433 | -12.97193 | 34205 ft | 343 kts | 218° |
| 2026-05-05 07:40 | 29.68352 | -12.98518 | 33778 ft | 340 kts | 218° |
| 2026-05-05 07:40 | 29.66290 | -12.99830 | 33394 ft | 337 kts | 218° |
| 2026-05-05 07:40 | 29.64251 | -13.01127 | 33008 ft | 334 kts | 218° |
| 2026-05-05 07:41 | 29.62226 | -13.02413 | 32638 ft | 331 kts | 217° |
| 2026-05-05 07:41 | 29.60220 | -13.03686 | 32272 ft | 328 kts | 217° |
| 2026-05-05 07:41 | 29.58232 | -13.04947 | 31913 ft | 325 kts | 217° |
| 2026-05-05 07:41 | 29.56261 | -13.06197 | 31560 ft | 322 kts | 217° |
| 2026-05-05 07:42 | 29.54305 | -13.07437 | 31210 ft | 320 kts | 217° |
| 2026-05-05 07:42 | 29.52364 | -13.08666 | 30866 ft | 317 kts | 217° |
| 2026-05-05 07:42 | 29.50441 | -13.09884 | 30520 ft | 316 kts | 216° |
| 2026-05-05 07:42 | 29.48506 | -13.11111 | 30192 ft | 322 kts | 216° |
| 2026-05-05 07:43 | 29.46501 | -13.12387 | 29784 ft | 335 kts | 216° |
| 2026-05-05 07:43 | 29.44450 | -13.13684 | 29349 ft | 336 kts | 216° |
| 2026-05-05 07:43 | 29.42408 | -13.14969 | 28962 ft | 333 kts | 216° |
| 2026-05-05 07:43 | 29.40391 | -13.16240 | 28578 ft | 329 kts | 216° |
| 2026-05-05 07:44 | 29.38397 | -13.17496 | 28208 ft | 325 kts | 216° |
| 2026-05-05 07:44 | 29.36448 | -13.18724 | 27842 ft | 322 kts | 216° |
| 2026-05-05 07:44 | 29.34460 | -13.19896 | 27469 ft | 321 kts | 213° |
| 2026-05-05 07:44 | 29.32450 | -13.20993 | 27113 ft | 318 kts | 212° |
| 2026-05-05 07:45 | 29.30456 | -13.22066 | 26760 ft | 315 kts | 212° |
| 2026-05-05 07:45 | 29.28481 | -13.23135 | 26413 ft | 312 kts | 212° |
| 2026-05-05 07:45 | 29.26528 | -13.24199 | 26071 ft | 310 kts | 212° |
| 2026-05-05 07:45 | 29.24594 | -13.25259 | 25731 ft | 307 kts | 212° |
| 2026-05-05 07:46 | 29.22675 | -13.26312 | 25381 ft | 305 kts | 212° |
| 2026-05-05 07:46 | 29.20767 | -13.27358 | 25025 ft | 303 kts | 212° |
| 2026-05-05 07:46 | 29.18864 | -13.28402 | 24649 ft | 304 kts | 212° |
| 2026-05-05 07:46 | 29.16953 | -13.29449 | 24273 ft | 305 kts | 212° |
| 2026-05-05 07:47 | 29.15032 | -13.30502 | 23861 ft | 307 kts | 212° |
| 2026-05-05 07:47 | 29.13104 | -13.31558 | 23472 ft | 308 kts | 212° |
| 2026-05-05 07:47 | 29.11172 | -13.32615 | 23047 ft | 308 kts | 212° |
| 2026-05-05 07:47 | 29.09236 | -13.33673 | 22636 ft | 308 kts | 212° |
| 2026-05-05 07:48 | 29.07303 | -13.34730 | 22242 ft | 308 kts | 212° |
| 2026-05-05 07:48 | 29.05346 | -13.35799 | 21849 ft | 307 kts | 212° |
| 2026-05-05 07:48 | 29.03425 | -13.36847 | 21464 ft | 305 kts | 212° |
| 2026-05-05 07:48 | 29.01518 | -13.37887 | 21085 ft | 303 kts | 212° |
| 2026-05-05 07:49 | 28.99621 | -13.38922 | 20711 ft | 301 kts | 211° |
| 2026-05-05 07:49 | 28.97734 | -13.39951 | 20341 ft | 300 kts | 211° |
| 2026-05-05 07:49 | 28.95881 | -13.40962 | 19976 ft | 298 kts | 211° |
| 2026-05-05 07:49 | 28.93990 | -13.41993 | 19605 ft | 297 kts | 211° |
| 2026-05-05 07:50 | 28.92150 | -13.42996 | 19244 ft | 296 kts | 211° |
| 2026-05-05 07:50 | 28.90295 | -13.44007 | 18884 ft | 295 kts | 211° |
| 2026-05-05 07:50 | 28.88441 | -13.45017 | 18507 ft | 295 kts | 211° |
| 2026-05-05 07:50 | 28.86564 | -13.46039 | 18094 ft | 295 kts | 211° |
| 2026-05-05 07:51 | 28.84716 | -13.47045 | 17682 ft | 294 kts | 211° |
| 2026-05-05 07:51 | 28.82876 | -13.48046 | 17308 ft | 292 kts | 211° |
| 2026-05-05 07:51 | 28.81044 | -13.49041 | 16942 ft | 291 kts | 211° |
| 2026-05-05 07:51 | 28.79245 | -13.50019 | 16584 ft | 290 kts | 211° |
| 2026-05-05 07:52 | 28.77430 | -13.51005 | 16225 ft | 288 kts | 211° |
| 2026-05-05 07:52 | 28.75624 | -13.51986 | 15863 ft | 287 kts | 211° |
| 2026-05-05 07:52 | 28.73822 | -13.52965 | 15506 ft | 286 kts | 211° |
| 2026-05-05 07:52 | 28.72027 | -13.53939 | 15155 ft | 286 kts | 211° |
| 2026-05-05 07:53 | 28.70232 | -13.54913 | 14801 ft | 285 kts | 211° |
| 2026-05-05 07:53 | 28.68443 | -13.55884 | 14450 ft | 285 kts | 211° |
| 2026-05-05 07:53 | 28.66651 | -13.56855 | 14093 ft | 285 kts | 211° |
| 2026-05-05 07:53 | 28.64861 | -13.57826 | 13719 ft | 286 kts | 211° |
| 2026-05-05 07:54 | 28.63069 | -13.58797 | 13332 ft | 285 kts | 210° |
| 2026-05-05 07:54 | 28.61276 | -13.59768 | 12963 ft | 285 kts | 210° |
| 2026-05-05 07:54 | 28.59488 | -13.60737 | 12599 ft | 284 kts | 210° |
| 2026-05-05 07:54 | 28.57705 | -13.61701 | 12244 ft | 284 kts | 210° |
| 2026-05-05 07:55 | 28.55924 | -13.62664 | 11891 ft | 283 kts | 210° |
| 2026-05-05 07:55 | 28.54145 | -13.63625 | 11531 ft | 283 kts | 210° |
| 2026-05-05 07:55 | 28.52363 | -13.64567 | 11182 ft | 283 kts | 208° |
| 2026-05-05 07:55 | 28.50556 | -13.65451 | 10834 ft | 283 kts | 207° |
| 2026-05-05 07:56 | 28.48744 | -13.66326 | 10481 ft | 283 kts | 207° |
| 2026-05-05 07:56 | 28.46926 | -13.67205 | 10133 ft | 284 kts | 205° |
| 2026-05-05 07:56 | 28.44989 | -13.67632 | 9989 ft | 283 kts | 184° |
| 2026-05-05 07:56 | 28.43037 | -13.67457 | 9570 ft | 288 kts | 176° |
| 2026-05-05 07:57 | 28.41025 | -13.67109 | 9074 ft | 294 kts | 175° |
| 2026-05-05 07:57 | 28.38993 | -13.66752 | 8651 ft | 296 kts | 175° |
| 2026-05-05 07:57 | 28.36952 | -13.66410 | 8272 ft | 297 kts | 175° |
| 2026-05-05 07:57 | 28.34954 | -13.65810 | 7932 ft | 300 kts | 155° |
| 2026-05-05 07:58 | 28.33195 | -13.64667 | 7959 ft | 285 kts | 154° |
| 2026-05-05 07:58 | 28.31506 | -13.63588 | 7953 ft | 272 kts | 154° |
| 2026-05-05 07:58 | 28.29882 | -13.62569 | 7942 ft | 264 kts | 155° |
| 2026-05-05 07:58 | 28.28285 | -13.61576 | 7939 ft | 261 kts | 155° |
| 2026-05-05 07:59 | 28.26687 | -13.60585 | 7936 ft | 262 kts | 155° |
| 2026-05-05 07:59 | 28.25084 | -13.59594 | 7941 ft | 262 kts | 156° |
| 2026-05-05 07:59 | 28.23391 | -13.59045 | 7912 ft | 249 kts | 184° |
| 2026-05-05 07:59 | 28.21702 | -13.59210 | 7922 ft | 241 kts | 191° |
| 2026-05-05 08:00 | 28.20054 | -13.59459 | 7918 ft | 237 kts | 191° |
| 2026-05-05 08:00 | 28.18418 | -13.59708 | 7921 ft | 237 kts | 191° |
| 2026-05-05 08:00 | 28.16782 | -13.59952 | 7920 ft | 237 kts | 191° |
| 2026-05-05 08:00 | 28.15140 | -13.60193 | 7921 ft | 238 kts | 191° |
| 2026-05-05 08:01 | 28.13494 | -13.60431 | 7926 ft | 239 kts | 191° |
| 2026-05-05 08:01 | 28.11838 | -13.60671 | 7927 ft | 240 kts | 191° |
| 2026-05-05 08:01 | 28.10282 | -13.61262 | 7907 ft | 235 kts | 218° |
| 2026-05-05 08:01 | 28.09054 | -13.62449 | 7855 ft | 231 kts | 224° |
| 2026-05-05 08:02 | 28.07860 | -13.63664 | 7590 ft | 231 kts | 224° |
| 2026-05-05 08:02 | 28.06657 | -13.64885 | 7280 ft | 233 kts | 223° |
| 2026-05-05 08:02 | 28.05444 | -13.66111 | 6973 ft | 235 kts | 224° |
| 2026-05-05 08:02 | 28.04230 | -13.67336 | 6747 ft | 234 kts | 223° |
| 2026-05-05 08:03 | 28.03005 | -13.68570 | 6466 ft | 234 kts | 223° |
| 2026-05-05 08:03 | 28.01806 | -13.69776 | 6319 ft | 229 kts | 223° |
| 2026-05-05 08:03 | 28.00750 | -13.71138 | 6004 ft | 229 kts | 245° |
| 2026-05-05 08:03 | 28.00244 | -13.72811 | 5844 ft | 231 kts | 256° |
| 2026-05-05 08:04 | 27.99862 | -13.74605 | 5742 ft | 232 kts | 256° |
| 2026-05-05 08:04 | 27.99494 | -13.76369 | 5596 ft | 235 kts | 256° |
| 2026-05-05 08:04 | 27.99112 | -13.78164 | 5485 ft | 235 kts | 256° |
| 2026-05-05 08:04 | 27.98723 | -13.79969 | 5358 ft | 237 kts | 256° |
| 2026-05-05 08:05 | 27.98349 | -13.81786 | 5220 ft | 237 kts | 262° |
| 2026-05-05 08:05 | 27.98544 | -13.83603 | 5051 ft | 235 kts | 294° |
| 2026-05-05 08:05 | 27.99552 | -13.85033 | 4907 ft | 237 kts | 324° |
| 2026-05-05 08:05 | 28.01069 | -13.85745 | 4768 ft | 240 kts | 350° |
| 2026-05-05 08:06 | 28.02735 | -13.85940 | 4611 ft | 241 kts | 356° |
| 2026-05-05 08:06 | 28.04409 | -13.86030 | 4440 ft | 241 kts | 357° |
| 2026-05-05 08:06 | 28.06081 | -13.86109 | 4278 ft | 240 kts | 358° |
| 2026-05-05 08:06 | 28.07738 | -13.86191 | 4117 ft | 236 kts | 358° |
| 2026-05-05 08:07 | 28.09366 | -13.86278 | 3950 ft | 232 kts | 357° |
| 2026-05-05 08:07 | 28.10970 | -13.86369 | 3807 ft | 230 kts | 358° |
| 2026-05-05 08:07 | 28.12025 | -13.86431 | 3712 ft | 229 kts | 358° |
| 2026-05-05 08:07 | 28.13626 | -13.86526 | 3563 ft | 227 kts | 358° |
| 2026-05-05 08:08 | 28.15197 | -13.86622 | 3431 ft | 226 kts | 358° |
| 2026-05-05 08:08 | 28.16753 | -13.86717 | 3277 ft | 227 kts | 358° |
| 2026-05-05 08:08 | 28.18322 | -13.86815 | 3136 ft | 223 kts | 359° |
| 2026-05-05 08:08 | 28.19854 | -13.86912 | 3007 ft | 213 kts | 358° |
| 2026-05-05 08:09 | 28.21300 | -13.87004 | 2845 ft | 204 kts | 0° |
| 2026-05-05 08:09 | 28.22685 | -13.87087 | 2745 ft | 195 kts | 2° |
| 2026-05-05 08:09 | 28.24057 | -13.87085 | 2703 ft | 199 kts | 4° |
| 2026-05-05 08:09 | 28.25393 | -13.87040 | 2705 ft | 190 kts | 4° |
| 2026-05-05 08:10 | 28.26707 | -13.86996 | 2674 ft | 183 kts | 5° |
| 2026-05-05 08:10 | 28.27962 | -13.86951 | 2694 ft | 181 kts | 5° |
| 2026-05-05 08:10 | 28.29220 | -13.86909 | 2694 ft | 177 kts | 4° |
| 2026-05-05 08:10 | 28.30443 | -13.86867 | 2674 ft | 179 kts | 4° |
| 2026-05-05 08:11 | 28.31681 | -13.86827 | 2495 ft | 177 kts | 5° |
| 2026-05-05 08:11 | 28.32910 | -13.86787 | 2301 ft | 176 kts | 4° |
| 2026-05-05 08:11 | 28.34139 | -13.86746 | 2059 ft | 178 kts | 5° |
| 2026-05-05 08:11 | 28.35351 | -13.86706 | 1801 ft | 167 kts | 5° |
| 2026-05-05 08:12 | 28.36451 | -13.86672 | 1578 ft | 150 kts | 6° |
| 2026-05-05 08:12 | 28.37465 | -13.86632 | 1437 ft | 144 kts | 6° |
| 2026-05-05 08:12 | 28.38448 | -13.86585 | 1275 ft | 139 kts | 5° |
| 2026-05-05 08:12 | 28.39420 | -13.86572 | 1042 ft | 137 kts | 4° |
| 2026-05-05 08:13 | 28.40371 | -13.86545 | 893 ft | 138 kts | 6° |
| 2026-05-05 08:13 | 28.41321 | -13.86500 | 718 ft | 138 kts | 5° |
| 2026-05-05 08:13 | 28.42281 | -13.86471 | 419 ft | 137 kts | 4° |
| 2026-05-05 08:13 | 28.43218 | -13.86442 | 243 ft | 134 kts | 4° |
| 2026-05-05 08:14 | 28.44146 | -13.86411 | 90 ft | 132 kts | 4° |
| 2026-05-05 08:14 | 28.44970 | -13.86384 | 75 ft | 97 kts | 0° |
| 2026-05-05 08:14 | 28.45432 | -13.86370 | 80 ft | 36 kts | 1° |
| 2026-05-05 08:14 | 28.45616 | -13.86365 | 84 ft | 13 kts | 2° |
| 2026-05-05 08:15 | 28.45661 | -13.86414 | 88 ft | 9 kts | 274° |
| 2026-05-05 08:15 | 28.45662 | -13.86482 | 90 ft | 8 kts | 271° |
| 2026-05-05 08:15 | 28.45658 | -13.86547 | 95 ft | 8 kts | 242° |
| 2026-05-05 08:15 | 28.45605 | -13.86559 | 95 ft | 8 kts | 181° |
| 2026-05-05 08:16 | 28.45549 | -13.86560 | 95 ft | 8 kts | 182° |
| 2026-05-05 08:16 | 28.45496 | -13.86562 | 95 ft | 8 kts | 182° |
| 2026-05-05 08:16 | 28.45444 | -13.86564 | 96 ft | 7 kts | 181° |
| 2026-05-05 08:16 | 28.45394 | -13.86566 | 97 ft | 7 kts | 181° |
| 2026-05-05 08:17 | 28.45365 | -13.86581 | 96 ft | 4 kts | 258° |
| 2026-05-05 08:17 | 28.45368 | -13.86613 | 97 ft | 6 kts | 276° |
| 2026-05-05 08:17 | 28.45371 | -13.86691 | 98 ft | 10 kts | 272° |
| 2026-05-05 08:17 | 28.45335 | -13.86731 | 99 ft | 8 kts | 189° |
| 2026-05-05 08:18 | 28.45279 | -13.86738 | 100 ft | 7 kts | 195° |
| 2026-05-05 08:18 | 28.45269 | -13.86781 | 98 ft | 6 kts | 275° |
| 2026-05-05 08:18 | 28.45270 | -13.86822 | 98 ft | 2 kts | 272° |
| 2026-05-05 08:18 | 28.45270 | -13.86832 | 98 ft | 1 kts | 271° |
| 2026-05-05 08:19 | 28.45270 | -13.86837 | 98 ft | 0 kts | 271° |